Time;durP1;ratioP1;P1;durP2;ratioP2;P2;SDS_P1;SDS_P2;PMS_P1;PMS_P2;Temp;Humidity;BMP_temperature;BMP_pressure;BME280_temperature;BME280_humidity;BME280_pressure;Samples;Min_cycle;Max_cycle;Signal;HPM_P1;HPM_P2
2023/01/10 00:00:50;;;;;;;0.97;0.83;;;;;;;;;;4917635;29;20483;-66
2023/01/10 00:03:17;;;;;;;0.67;0.50;;;;;;;;;;4916692;29;20468;-67
2023/01/10 00:05:43;;;;;;;1.63;0.80;;;;;;;;;;4915910;29;20483;-66
2023/01/10 00:08:11;;;;;;;0.60;0.60;;;;;;;;;;4916492;29;20432;-67
2023/01/10 00:10:37;;;;;;;0.40;0.40;;;;;;;;;;4917231;29;20448;-67
2023/01/10 00:15:48;;;;;;;0.40;0.40;;;;;;;;;;4954902;29;20469;-67
2023/01/10 00:18:14;;;;;;;0.50;0.50;;;;;;;;;;4954966;28;20470;-68
2023/01/10 00:20:40;;;;;;;0.57;0.57;;;;;;;;;;4954503;28;20431;-68
2023/01/10 00:23:06;;;;;;;0.60;0.60;;;;;;;;;;4956106;28;20442;-67
2023/01/10 00:25:33;;;;;;;0.70;0.70;;;;;;;;;;4954261;28;20490;-67
2023/01/10 00:28:33;;;;;;;0.50;0.50;;;;;;;;;;4953764;28;20506;-67
2023/01/10 00:31:00;;;;;;;1.53;0.40;;;;;;;;;;4952466;28;20797;-67
2023/01/10 00:33:27;;;;;;;1.03;0.70;;;;;;;;;;4954575;28;21059;-67
2023/01/10 00:35:53;;;;;;;0.60;0.50;;;;;;;;;;4954423;28;20438;-67
2023/01/10 00:38:19;;;;;;;0.40;0.40;;;;;;;;;;4954684;28;20430;-68
2023/01/10 00:40:45;;;;;;;0.70;0.70;;;;;;;;;;4953778;28;20473;-68
2023/01/10 00:45:56;;;;;;;0.77;0.40;;;;;;;;;;4954420;28;21038;-67
2023/01/10 00:48:22;;;;;;;0.63;0.60;;;;;;;;;;4954192;28;20931;-67
2023/01/10 00:50:48;;;;;;;0.50;0.50;;;;;;;;;;4953995;28;20431;-67
2023/01/10 00:53:14;;;;;;;0.40;0.40;;;;;;;;;;4954589;28;20489;-66
2023/01/10 00:55:40;;;;;;;0.60;0.60;;;;;;;;;;4954479;28;20434;-66
2023/01/10 00:58:10;;;;;;;0.43;0.43;;;;;;;;;;4952733;28;20786;-66
2023/01/10 01:00:36;;;;;;;1.53;0.43;;;;;;;;;;4955272;28;20443;-69
2023/01/10 01:03:02;;;;;;;0.60;0.30;;;;;;;;;;4955079;28;20444;-66
2023/01/10 01:05:28;;;;;;;10.83;0.80;;;;;;;;;;4953513;28;20489;-67
2023/01/10 01:07:54;;;;;;;0.77;0.70;;;;;;;;;;4954607;28;20439;-67
2023/01/10 01:10:26;;;;;;;5.03;0.40;;;;;;;;;;4936816;29;20505;-67
2023/01/10 01:12:55;;;;;;;0.50;0.50;;;;;;;;;;4953337;28;20902;-67
2023/01/10 01:15:22;;;;;;;0.40;0.40;;;;;;;;;;4954217;28;20958;-68
2023/01/10 01:17:48;;;;;;;0.40;0.40;;;;;;;;;;4953849;28;20439;-67
2023/01/10 01:20:14;;;;;;;0.43;0.43;;;;;;;;;;4936531;29;20544;-66
2023/01/10 01:22:40;;;;;;;0.73;0.50;;;;;;;;;;4953564;28;20458;-66
2023/01/10 01:25:06;;;;;;;0.50;0.50;;;;;;;;;;4953961;28;20504;-67
2023/01/10 01:27:33;;;;;;;0.67;0.50;;;;;;;;;;4953252;28;20431;-66
2023/01/10 01:29:59;;;;;;;4.63;0.43;;;;;;;;;;4953519;28;20451;-67
2023/01/10 01:32:25;;;;;;;0.40;0.40;;;;;;;;;;4953530;28;20435;-67
2023/01/10 01:40:58;;;;;;;1.90;0.50;;;;;;;;;;4953462;29;20473;-67
2023/01/10 01:43:29;;;;;;;0.70;0.70;;;;;;;;;;4953684;28;20938;-67
2023/01/10 01:45:56;;;;;;;0.47;0.47;;;;;;;;;;4953486;28;20963;-67
2023/01/10 01:48:29;;;;;;;0.50;0.50;;;;;;;;;;4952367;28;20451;-66
2023/01/10 01:51:04;;;;;;;0.30;0.30;;;;;;;;;;4935958;29;20437;-67
2023/01/10 01:53:42;;;;;;;3.67;0.90;;;;;;;;;;4955029;28;20434;-67
2023/01/10 01:56:13;;;;;;;0.40;0.40;;;;;;;;;;4953238;28;20441;-66
2023/01/10 01:58:59;;;;;;;2.23;0.80;;;;;;;;;;4952088;28;20928;-67
2023/01/10 02:01:26;;;;;;;0.60;0.60;;;;;;;;;;4952914;28;20439;-67
2023/01/10 02:03:56;;;;;;;1.33;0.50;;;;;;;;;;4953311;28;20533;-67
2023/01/10 02:06:23;;;;;;;0.50;0.50;;;;;;;;;;4935691;29;20517;-67
2023/01/10 02:09:18;;;;;;;5.63;0.70;;;;;;;;;;4952458;28;20450;-67
2023/01/10 02:11:44;;;;;;;4.43;0.87;;;;;;;;;;4900828;29;20828;-67
2023/01/10 02:14:11;;;;;;;1.43;0.90;;;;;;;;;;4952485;28;20481;-68
2023/01/10 02:16:37;;;;;;;3.63;0.73;;;;;;;;;;4952125;29;20531;-66
2023/01/10 02:19:07;;;;;;;0.90;0.90;;;;;;;;;;4952478;28;20533;-67
2023/01/10 02:21:39;;;;;;;3.70;0.93;;;;;;;;;;4952771;28;20439;-67
2023/01/10 02:24:08;;;;;;;1.70;0.70;;;;;;;;;;4953339;28;20476;-67
2023/01/10 02:26:58;;;;;;;3.07;1.00;;;;;;;;;;4952388;28;20537;-68
2023/01/10 02:29:44;;;;;;;2.00;1.00;;;;;;;;;;4952358;28;20871;-66
2023/01/10 02:32:10;;;;;;;1.87;1.10;;;;;;;;;;4953113;28;20449;-68
2023/01/10 02:34:49;;;;;;;0.83;0.83;;;;;;;;;;4952896;28;20431;-68
2023/01/10 02:37:27;;;;;;;6.43;0.70;;;;;;;;;;4951780;28;20509;-68
2023/01/10 02:39:56;;;;;;;2.30;0.70;;;;;;;;;;4952465;28;20435;-67
2023/01/10 02:42:29;;;;;;;2.10;0.80;;;;;;;;;;4952350;28;20437;-66
2023/01/10 02:45:01;;;;;;;3.23;1.50;;;;;;;;;;4951235;28;20906;-68
2023/01/10 02:47:34;;;;;;;5.40;1.40;;;;;;;;;;4952181;28;20435;-68
2023/01/10 02:50:20;;;;;;;3.10;0.93;;;;;;;;;;4952167;28;20543;-67
2023/01/10 02:52:46;;;;;;;1.20;0.70;;;;;;;;;;4951840;28;20450;-68
2023/01/10 02:55:12;;;;;;;2.47;0.90;;;;;;;;;;4951729;28;20446;-68
2023/01/10 02:57:44;;;;;;;1.93;0.70;;;;;;;;;;4952651;28;20439;-68
2023/01/10 03:00:22;;;;;;;1.20;1.20;;;;;;;;;;4935206;29;20948;-68
2023/01/10 03:03:07;;;;;;;3.63;1.60;;;;;;;;;;4951994;28;20446;-68
2023/01/10 03:05:41;;;;;;;9.53;1.00;;;;;;;;;;4951736;28;20492;-68
2023/01/10 03:08:07;;;;;;;2.50;1.30;;;;;;;;;;4951518;28;20431;-67
2023/01/10 03:10:38;;;;;;;2.30;0.50;;;;;;;;;;4934689;29;20449;-67
2023/01/10 03:13:09;;;;;;;4.10;0.80;;;;;;;;;;4951828;28;20995;-67
2023/01/10 03:15:36;;;;;;;0.80;0.70;;;;;;;;;;4951523;28;20450;-68
2023/01/10 03:18:05;;;;;;;3.47;1.07;;;;;;;;;;4951261;28;20469;-68
2023/01/10 03:20:33;;;;;;;1.13;1.13;;;;;;;;;;4950643;28;20494;-68
2023/01/10 03:23:02;;;;;;;7.10;1.60;;;;;;;;;;4934871;28;20453;-67
2023/01/10 03:25:33;;;;;;;1.90;0.57;;;;;;;;;;4950941;28;20490;-67
2023/01/10 03:28:05;;;;;;;0.57;0.57;;;;;;;;;;4951288;28;20789;-67
2023/01/10 03:30:50;;;;;;;1.27;0.60;;;;;;;;;;4951563;28;20466;-68
2023/01/10 03:33:17;;;;;;;3.60;0.70;;;;;;;;;;4951295;28;20855;-67
2023/01/10 03:35:52;;;;;;;11.57;0.90;;;;;;;;;;4949731;28;20445;-67
2023/01/10 03:38:24;;;;;;;1.30;0.77;;;;;;;;;;4950864;28;20438;-68
2023/01/10 03:40:59;;;;;;;4.73;0.73;;;;;;;;;;4952449;28;20458;-67
2023/01/10 03:46:20;;;;;;;1.93;0.80;;;;;;;;;;4951586;28;20459;-68
2023/01/10 03:48:47;;;;;;;1.63;1.53;;;;;;;;;;4951485;28;20435;-67
2023/01/10 03:51:15;;;;;;;0.50;0.50;;;;;;;;;;4951055;28;20443;-67
2023/01/10 03:53:41;;;;;;;6.03;0.90;;;;;;;;;;4952452;28;20442;-68
2023/01/10 03:56:07;;;;;;;4.53;0.97;;;;;;;;;;4951918;28;20821;-68
2023/01/10 03:58:33;;;;;;;2.23;1.00;;;;;;;;;;4950734;28;20441;-68
2023/01/10 04:00:59;;;;;;;4.10;1.37;;;;;;;;;;4951167;28;20479;-68
2023/01/10 04:03:26;;;;;;;0.80;0.80;;;;;;;;;;4952014;28;20513;-68
2023/01/10 04:05:52;;;;;;;3.30;1.03;;;;;;;;;;4951516;28;20529;-68
2023/01/10 04:08:18;;;;;;;0.60;0.50;;;;;;;;;;4950788;28;20863;-68
2023/01/10 04:10:44;;;;;;;1.47;0.67;;;;;;;;;;4934229;28;20435;-67
2023/01/10 04:13:10;;;;;;;0.60;0.60;;;;;;;;;;4952247;28;20808;-67
2023/01/10 04:15:36;;;;;;;1.13;1.07;;;;;;;;;;4951504;28;20461;-67
2023/01/10 04:18:02;;;;;;;1.23;1.00;;;;;;;;;;4950536;28;20443;-67
2023/01/10 04:20:28;;;;;;;0.70;0.57;;;;;;;;;;4950636;28;20939;-67
2023/01/10 04:22:54;;;;;;;4.17;1.23;;;;;;;;;;4950686;28;20446;-67
2023/01/10 04:25:21;;;;;;;0.83;0.57;;;;;;;;;;4950817;28;20498;-68
2023/01/10 04:27:48;;;;;;;0.60;0.60;;;;;;;;;;4950811;28;20994;-68
2023/01/10 04:30:14;;;;;;;2.97;0.97;;;;;;;;;;4951484;28;20534;-67
2023/01/10 04:32:40;;;;;;;0.80;0.80;;;;;;;;;;4952905;28;20442;-67
2023/01/10 04:35:06;;;;;;;0.77;0.77;;;;;;;;;;4954378;28;20434;-67
2023/01/10 04:37:32;;;;;;;0.97;0.97;;;;;;;;;;4954200;28;20915;-67
2023/01/10 04:39:58;;;;;;;0.70;0.60;;;;;;;;;;4955719;28;20458;-67
2023/01/10 04:42:24;;;;;;;1.60;1.00;;;;;;;;;;4954557;28;20439;-67
2023/01/10 04:44:50;;;;;;;3.20;0.63;;;;;;;;;;4937099;28;20486;-67
2023/01/10 04:47:16;;;;;;;1.40;0.73;;;;;;;;;;4954098;28;20834;-68
2023/01/10 04:49:42;;;;;;;3.10;0.83;;;;;;;;;;4953965;28;20447;-67
2023/01/10 04:52:08;;;;;;;3.33;0.87;;;;;;;;;;4939357;29;20427;-67
2023/01/10 04:54:34;;;;;;;0.97;0.80;;;;;;;;;;4954184;28;20934;-67
2023/01/10 04:57:00;;;;;;;2.20;0.83;;;;;;;;;;4954586;28;20646;-68
2023/01/10 04:59:26;;;;;;;2.10;1.00;;;;;;;;;;4954179;28;20449;-67
2023/01/10 05:01:52;;;;;;;1.70;0.70;;;;;;;;;;4954943;28;20482;-67
2023/01/10 05:04:18;;;;;;;2.40;0.77;;;;;;;;;;4953255;28;20522;-69
2023/01/10 05:06:44;;;;;;;1.20;1.10;;;;;;;;;;4953978;28;20447;-67
2023/01/10 05:09:10;;;;;;;1.37;1.23;;;;;;;;;;4954627;28;20509;-67
2023/01/10 05:11:36;;;;;;;3.70;1.03;;;;;;;;;;4954246;28;20430;-67
2023/01/10 05:14:02;;;;;;;2.47;1.10;;;;;;;;;;4936160;29;20474;-68
2023/01/10 05:16:28;;;;;;;1.13;1.13;;;;;;;;;;4953355;28;20923;-67
2023/01/10 05:18:54;;;;;;;0.90;0.90;;;;;;;;;;4952312;29;20807;-67
2023/01/10 05:21:20;;;;;;;2.20;0.80;;;;;;;;;;4936480;29;20469;-70
2023/01/10 05:23:46;;;;;;;0.80;0.80;;;;;;;;;;4953222;28;20439;-67
2023/01/10 05:26:14;;;;;;;0.87;0.80;;;;;;;;;;4953150;28;20518;-67
2023/01/10 05:28:40;;;;;;;0.67;0.67;;;;;;;;;;4953503;28;20510;-67
2023/01/10 05:31:06;;;;;;;5.03;0.77;;;;;;;;;;4953340;28;20518;-67
2023/01/10 05:33:32;;;;;;;0.70;0.70;;;;;;;;;;4953489;28;20438;-67
2023/01/10 05:36:02;;;;;;;0.90;0.90;;;;;;;;;;4952700;28;20445;-68
2023/01/10 05:38:28;;;;;;;1.20;1.00;;;;;;;;;;4953391;28;20447;-67
2023/01/10 05:40:55;;;;;;;2.10;0.60;;;;;;;;;;4953358;28;20522;-68
2023/01/10 05:43:21;;;;;;;1.07;0.60;;;;;;;;;;4953297;28;20457;-68
2023/01/10 05:45:47;;;;;;;3.80;1.10;;;;;;;;;;4953079;28;21031;-68
2023/01/10 05:48:13;;;;;;;1.20;0.60;;;;;;;;;;4952940;28;20446;-68
2023/01/10 05:50:39;;;;;;;2.27;1.07;;;;;;;;;;4952524;28;20531;-68
2023/01/10 05:53:06;;;;;;;0.80;0.80;;;;;;;;;;4953352;28;20445;-67
2023/01/10 05:55:32;;;;;;;1.47;1.13;;;;;;;;;;4951806;28;20447;-67
2023/01/10 05:57:58;;;;;;;2.20;1.47;;;;;;;;;;4953876;28;20443;-67
2023/01/10 06:00:24;;;;;;;1.03;0.90;;;;;;;;;;4953708;28;20843;-67
2023/01/10 06:02:50;;;;;;;1.10;0.93;;;;;;;;;;4935303;29;20509;-67
2023/01/10 06:05:16;;;;;;;0.83;0.83;;;;;;;;;;4952535;28;21282;-68
2023/01/10 06:07:42;;;;;;;2.93;0.90;;;;;;;;;;4952314;29;20445;-67
2023/01/10 06:10:08;;;;;;;1.63;1.50;;;;;;;;;;4954066;28;20533;-68
2023/01/10 06:12:34;;;;;;;4.93;1.17;;;;;;;;;;4952789;28;20459;-68
2023/01/10 06:15:00;;;;;;;4.90;4.50;;;;;;;;;;4952669;28;20522;-68
2023/01/10 06:17:26;;;;;;;1.03;1.03;;;;;;;;;;4951651;28;20426;-67
2023/01/10 06:19:52;;;;;;;1.07;0.97;;;;;;;;;;4952409;28;20438;-67
2023/01/10 06:22:18;;;;;;;0.77;0.70;;;;;;;;;;4952658;28;20427;-67
2023/01/10 06:24:44;;;;;;;1.03;0.90;;;;;;;;;;4952615;28;20590;-67
2023/01/10 06:27:10;;;;;;;1.00;1.00;;;;;;;;;;4952099;28;20935;-67
2023/01/10 06:29:36;;;;;;;2.60;1.10;;;;;;;;;;4952699;28;20793;-67
2023/01/10 06:32:01;;;;;;;5.60;1.00;;;;;;;;;;4952343;28;20443;-67
2023/01/10 06:34:27;;;;;;;1.07;0.97;;;;;;;;;;4952205;28;20490;-67
2023/01/10 06:36:53;;;;;;;0.90;0.90;;;;;;;;;;4953188;28;20430;-67
2023/01/10 06:39:19;;;;;;;1.70;1.00;;;;;;;;;;4952574;28;20969;-67
2023/01/10 06:41:45;;;;;;;1.63;1.37;;;;;;;;;;4952406;28;20974;-67
2023/01/10 06:44:11;;;;;;;1.20;0.83;;;;;;;;;;4952295;28;21050;-67
2023/01/10 06:46:37;;;;;;;2.60;1.30;;;;;;;;;;4952999;28;20947;-67
2023/01/10 06:49:03;;;;;;;2.57;0.90;;;;;;;;;;4944430;28;20435;-66
2023/01/10 06:51:29;;;;;;;4.07;1.30;;;;;;;;;;4950253;28;20490;-67
2023/01/10 06:53:55;;;;;;;5.47;1.80;;;;;;;;;;4951662;28;20846;-67
2023/01/10 06:56:21;;;;;;;3.77;2.00;;;;;;;;;;4951348;28;20443;-66
2023/01/10 06:58:50;;;;;;;3.27;1.50;;;;;;;;;;4950671;28;20943;-66
2023/01/10 07:01:17;;;;;;;1.57;1.33;;;;;;;;;;4951229;28;20453;-67
2023/01/10 07:03:43;;;;;;;3.90;3.60;;;;;;;;;;4949601;28;21136;-66
2023/01/10 07:06:09;;;;;;;1.27;1.17;;;;;;;;;;4952525;28;20974;-66
2023/01/10 07:08:36;;;;;;;2.87;0.90;;;;;;;;;;4951342;28;20439;-66
2023/01/10 07:11:02;;;;;;;1.07;0.60;;;;;;;;;;4951267;28;20534;-66
2023/01/10 07:13:28;;;;;;;5.40;1.57;;;;;;;;;;4950980;28;20478;-67
2023/01/10 07:16:01;;;;;;;3.00;1.53;;;;;;;;;;4950573;28;20439;-67
2023/01/10 07:18:27;;;;;;;4.83;1.27;;;;;;;;;;4950443;28;20442;-66
2023/01/10 07:20:54;;;;;;;3.83;1.47;;;;;;;;;;4950766;28;20789;-66
2023/01/10 07:23:20;;;;;;;1.30;1.30;;;;;;;;;;4948430;28;20772;-67
2023/01/10 07:25:46;;;;;;;5.97;1.83;;;;;;;;;;4951927;28;21018;-67
2023/01/10 07:28:12;;;;;;;4.10;1.13;;;;;;;;;;4951109;28;20475;-66
2023/01/10 07:30:38;;;;;;;1.67;0.70;;;;;;;;;;4951711;28;20442;-67
2023/01/10 07:33:05;;;;;;;0.93;0.83;;;;;;;;;;4951510;28;20427;-65
2023/01/10 07:35:31;;;;;;;1.00;0.90;;;;;;;;;;4950873;28;20474;-67
2023/01/10 07:37:58;;;;;;;3.73;1.43;;;;;;;;;;4950902;28;20788;-67
2023/01/10 07:40:24;;;;;;;1.07;0.97;;;;;;;;;;4951863;28;21219;-68
2023/01/10 07:42:50;;;;;;;5.00;1.20;;;;;;;;;;4950163;29;20510;-66
2023/01/10 07:45:16;;;;;;;3.83;1.10;;;;;;;;;;4950144;28;20478;-67
2023/01/10 07:47:42;;;;;;;2.60;1.13;;;;;;;;;;4953004;28;20445;-66
2023/01/10 07:50:08;;;;;;;4.27;1.60;;;;;;;;;;4950312;28;20860;-66
2023/01/10 07:52:37;;;;;;;1.80;1.10;;;;;;;;;;4950592;28;20441;-66
2023/01/10 07:55:03;;;;;;;3.53;1.63;;;;;;;;;;4951827;28;20434;-67
2023/01/10 07:57:29;;;;;;;2.70;1.77;;;;;;;;;;4951144;28;20439;-66
2023/01/10 07:59:57;;;;;;;1.43;1.33;;;;;;;;;;4950713;28;20796;-66
2023/01/10 08:02:23;;;;;;;1.10;0.97;;;;;;;;;;4951742;28;20770;-66
2023/01/10 08:04:49;;;;;;;3.40;0.83;;;;;;;;;;4949933;28;21017;-67
2023/01/10 08:07:15;;;;;;;3.40;1.40;;;;;;;;;;4951882;28;20466;-66
2023/01/10 08:09:41;;;;;;;1.10;1.00;;;;;;;;;;4937793;29;20593;-66
2023/01/10 08:12:07;;;;;;;1.80;0.93;;;;;;;;;;4955134;28;20426;-67
2023/01/10 08:14:33;;;;;;;6.77;1.20;;;;;;;;;;4954328;28;20446;-66
2023/01/10 08:17:00;;;;;;;4.97;1.43;;;;;;;;;;4954671;28;20541;-68
2023/01/10 08:19:26;;;;;;;2.37;1.07;;;;;;;;;;4953350;28;21006;-68
2023/01/10 08:21:51;;;;;;;3.77;1.30;;;;;;;;;;4954989;28;20521;-66
2023/01/10 08:24:17;;;;;;;3.03;1.00;;;;;;;;;;4937425;28;20493;-66
2023/01/10 08:26:43;;;;;;;5.10;1.30;;;;;;;;;;4953988;28;20949;-66
2023/01/10 08:29:09;;;;;;;2.20;1.10;;;;;;;;;;4952714;28;20442;-66
2023/01/10 08:31:35;;;;;;;5.03;1.33;;;;;;;;;;4954281;28;20498;-67
2023/01/10 08:34:01;;;;;;;4.37;1.80;;;;;;;;;;4954193;28;20453;-66
2023/01/10 08:36:28;;;;;;;5.37;1.30;;;;;;;;;;4954850;28;20832;-66
2023/01/10 08:38:55;;;;;;;4.43;1.30;;;;;;;;;;4954034;29;20434;-68
2023/01/10 08:41:21;;;;;;;0.70;0.70;;;;;;;;;;4954710;29;20502;-67
2023/01/10 08:43:50;;;;;;;4.53;1.90;;;;;;;;;;4954517;29;20422;-68
2023/01/10 08:46:17;;;;;;;2.43;1.60;;;;;;;;;;4936891;29;21453;-67
2023/01/10 08:48:43;;;;;;;3.47;1.53;;;;;;;;;;4953315;29;20739;-65
2023/01/10 08:51:09;;;;;;;7.97;1.80;;;;;;;;;;4953314;28;21021;-67
2023/01/10 08:53:35;;;;;;;0.83;0.80;;;;;;;;;;4953657;29;20430;-67
2023/01/10 08:56:01;;;;;;;1.50;1.40;;;;;;;;;;4954104;29;20915;-68
2023/01/10 08:58:27;;;;;;;4.13;1.50;;;;;;;;;;4953098;29;20502;-67
2023/01/10 09:00:53;;;;;;;5.83;1.77;;;;;;;;;;4951419;28;20896;-70
2023/01/10 09:03:19;;;;;;;2.03;1.60;;;;;;;;;;4953061;29;20423;-67
2023/01/10 09:05:45;;;;;;;3.33;1.10;;;;;;;;;;4954316;28;20486;-68
2023/01/10 09:08:11;;;;;;;2.77;1.53;;;;;;;;;;4936196;29;20439;-67
2023/01/10 09:10:37;;;;;;;1.67;1.00;;;;;;;;;;4953569;28;20451;-67
2023/01/10 09:13:04;;;;;;;3.00;1.30;;;;;;;;;;4954041;28;20562;-67
2023/01/10 09:15:35;;;;;;;3.60;1.97;;;;;;;;;;4953311;29;20434;-67
2023/01/10 09:18:05;;;;;;;10.07;1.87;;;;;;;;;;4952584;28;20474;-66
2023/01/10 09:20:32;;;;;;;6.43;1.43;;;;;;;;;;4935171;29;20498;-66
2023/01/10 09:22:59;;;;;;;2.83;1.80;;;;;;;;;;4951974;29;20465;-66
2023/01/10 09:25:25;;;;;;;3.63;1.10;;;;;;;;;;4952561;29;20485;-65
2023/01/10 09:28:02;;;;;;;6.17;2.27;;;;;;;;;;4952623;29;20790;-66
2023/01/10 09:30:31;;;;;;;3.90;1.40;;;;;;;;;;4951311;29;20447;-66
2023/01/10 09:32:57;;;;;;;3.53;1.70;;;;;;;;;;4935424;29;20465;-67
2023/01/10 09:35:24;;;;;;;2.63;1.97;;;;;;;;;;4952287;29;20466;-66
2023/01/10 09:37:52;;;;;;;3.20;1.70;;;;;;;;;;4951947;29;20521;-66
2023/01/10 09:40:20;;;;;;;4.03;1.10;;;;;;;;;;4935089;29;20442;-66
2023/01/10 09:43:03;;;;;;;9.40;2.20;;;;;;;;;;4952115;29;20442;-66
2023/01/10 09:45:51;;;;;;;4.60;1.93;;;;;;;;;;4951994;29;20494;-67
2023/01/10 09:48:23;;;;;;;2.43;1.10;;;;;;;;;;4950876;29;20494;-66
2023/01/10 09:50:51;;;;;;;2.50;1.10;;;;;;;;;;4951513;29;20430;-65
2023/01/10 09:53:21;;;;;;;3.10;1.70;;;;;;;;;;4951569;28;21109;-66
2023/01/10 09:55:55;;;;;;;6.07;1.47;;;;;;;;;;4936377;29;20435;-66
2023/01/10 09:58:28;;;;;;;4.83;1.30;;;;;;;;;;4951425;29;20447;-66
2023/01/10 10:00:54;;;;;;;15.40;2.10;;;;;;;;;;4948916;29;20425;-66
2023/01/10 10:03:38;;;;;;;3.20;2.20;;;;;;;;;;4950775;29;20431;-66
2023/01/10 10:06:04;;;;;;;4.63;1.93;;;;;;;;;;4951583;29;20514;-65
2023/01/10 10:08:30;;;;;;;1.73;1.63;;;;;;;;;;4951095;29;20514;-66
2023/01/10 10:11:00;;;;;;;1.37;1.20;;;;;;;;;;4936006;29;20562;-67
2023/01/10 10:13:33;;;;;;;2.67;1.20;;;;;;;;;;4951912;28;20474;-65
2023/01/10 10:16:16;;;;;;;3.20;1.20;;;;;;;;;;4948841;29;20451;-66
2023/01/10 10:19:00;;;;;;;5.67;1.20;;;;;;;;;;4950941;29;20931;-66
2023/01/10 10:21:37;;;;;;;8.67;1.13;;;;;;;;;;4952834;28;20425;-67
2023/01/10 10:24:27;;;;;;;1.70;1.20;;;;;;;;;;4952131;28;20461;-66
2023/01/10 10:26:58;;;;;;;5.00;1.40;;;;;;;;;;4954611;28;20912;-66
2023/01/10 10:29:40;;;;;;;4.57;1.50;;;;;;;;;;4955504;28;20790;-66
2023/01/10 10:32:23;;;;;;;3.60;1.30;;;;;;;;;;4955031;28;20470;-66
2023/01/10 10:34:53;;;;;;;4.63;1.37;;;;;;;;;;4955165;28;21049;-67
2023/01/10 10:37:32;;;;;;;4.10;1.23;;;;;;;;;;4953709;28;20795;-65
2023/01/10 10:40:06;;;;;;;5.97;1.20;;;;;;;;;;4953255;28;21042;-66
2023/01/10 10:42:35;;;;;;;12.07;1.37;;;;;;;;;;4950675;28;20982;-65
2023/01/10 10:45:16;;;;;;;5.50;1.10;;;;;;;;;;4951152;29;20544;-66
2023/01/10 10:47:48;;;;;;;6.53;1.40;;;;;;;;;;4949618;29;20446;-67
2023/01/10 10:50:14;;;;;;;5.63;1.90;;;;;;;;;;4951167;28;20562;-67
2023/01/10 10:52:42;;;;;;;1.70;1.60;;;;;;;;;;4950646;29;20538;-66
2023/01/10 10:55:13;;;;;;;14.70;4.40;;;;;;;;;;4933836;29;20936;-67
2023/01/10 10:57:40;;;;;;;9.70;4.80;;;;;;;;;;4948988;28;20574;-68
2023/01/10 11:00:07;;;;;;;11.07;5.47;;;;;;;;;;4950066;29;20908;-68
2023/01/10 11:02:39;;;;;;;5.70;1.70;;;;;;;;;;4951332;28;20443;-67
2023/01/10 11:05:15;;;;;;;10.83;4.67;;;;;;;;;;4950649;28;20478;-66
2023/01/10 11:07:41;;;;;;;3.23;2.40;;;;;;;;;;4954492;28;20446;-66
2023/01/10 11:12:49;;;;;;;4.67;2.40;;;;;;;;;;4953777;28;20500;-66
2023/01/10 11:15:40;;;;;;;16.93;5.83;;;;;;;;;;4952320;28;20439;-66
2023/01/10 11:18:09;;;;;;;7.47;2.13;;;;;;;;;;4952391;28;20455;-65
2023/01/10 11:20:36;;;;;;;4.00;1.60;;;;;;;;;;4951456;28;20605;-66
2023/01/10 11:23:02;;;;;;;25.20;6.40;;;;;;;;;;4953574;28;20449;-67
2023/01/10 11:25:29;;;;;;;6.73;3.67;;;;;;;;;;4952596;28;20654;-66
2023/01/10 11:27:57;;;;;;;4.90;1.87;;;;;;;;;;4953759;28;20437;-66
2023/01/10 11:30:24;;;;;;;12.63;6.50;;;;;;;;;;4951267;28;22009;-65
2023/01/10 11:33:04;;;;;;;14.53;5.40;;;;;;;;;;4954068;28;20935;-68
2023/01/10 11:35:31;;;;;;;5.43;3.60;;;;;;;;;;4953814;28;20450;-66
2023/01/10 11:37:58;;;;;;;12.00;7.00;;;;;;;;;;4951968;28;20923;-65
2023/01/10 11:40:28;;;;;;;7.50;3.80;;;;;;;;;;4951489;28;20835;-66
2023/01/10 11:42:55;;;;;;;14.43;8.43;;;;;;;;;;4934769;28;20973;-66
2023/01/10 11:45:26;;;;;;;23.93;10.03;;;;;;;;;;4953900;28;20491;-67
2023/01/10 11:47:56;;;;;;;16.27;9.73;;;;;;;;;;4951042;28;20445;-65
2023/01/10 11:50:31;;;;;;;8.67;5.07;;;;;;;;;;4953596;28;20450;-66
2023/01/10 11:52:57;;;;;;;4.30;3.17;;;;;;;;;;4952250;28;20442;-66
2023/01/10 11:55:26;;;;;;;10.00;3.20;;;;;;;;;;4954003;28;20470;-66
2023/01/10 11:58:07;;;;;;;20.43;12.13;;;;;;;;;;4951896;28;20435;-66
2023/01/10 12:00:34;;;;;;;7.90;5.00;;;;;;;;;;4953112;28;20516;-66
2023/01/10 12:03:00;;;;;;;6.83;4.27;;;;;;;;;;4935564;28;20514;-66
2023/01/10 12:05:26;;;;;;;13.30;5.27;;;;;;;;;;4952525;28;20486;-65
2023/01/10 12:08:05;;;;;;;16.50;6.27;;;;;;;;;;4949805;29;20470;-65
2023/01/10 12:10:32;;;;;;;7.73;3.93;;;;;;;;;;4950800;29;20450;-66
2023/01/10 12:12:59;;;;;;;38.53;17.40;;;;;;;;;;4950779;28;20498;-67
2023/01/10 12:15:29;;;;;;;20.37;8.20;;;;;;;;;;4950811;29;20447;-66
2023/01/10 12:17:57;;;;;;;61.67;24.47;;;;;;;;;;4950032;29;20419;-66
2023/01/10 12:20:24;;;;;;;12.60;6.67;;;;;;;;;;4950386;29;20928;-66
2023/01/10 12:22:56;;;;;;;19.87;10.77;;;;;;;;;;4950228;29;20494;-65
2023/01/10 12:25:36;;;;;;;17.07;10.17;;;;;;;;;;4950696;29;20486;-66
2023/01/10 12:28:02;;;;;;;25.23;14.60;;;;;;;;;;4949624;28;20494;-66
2023/01/10 12:30:31;;;;;;;7.80;2.83;;;;;;;;;;4949528;29;20426;-67
2023/01/10 12:32:58;;;;;;;4.63;2.40;;;;;;;;;;4950718;29;20423;-66
2023/01/10 12:35:38;;;;;;;4.33;2.13;;;;;;;;;;4951123;28;20510;-66
2023/01/10 12:38:09;;;;;;;12.30;4.63;;;;;;;;;;4950676;28;20477;-70
2023/01/10 12:40:35;;;;;;;6.63;3.13;;;;;;;;;;4951597;28;20447;-66
2023/01/10 12:45:51;;;;;;;6.80;2.73;;;;;;;;;;4951115;28;21094;-66
2023/01/10 12:48:30;;;;;;;15.30;7.00;;;;;;;;;;4949981;29;20423;-65
2023/01/10 12:50:58;;;;;;;7.20;4.13;;;;;;;;;;4951152;29;20430;-66
2023/01/10 12:53:28;;;;;;;18.37;8.50;;;;;;;;;;4952694;28;20454;-66
2023/01/10 12:55:56;;;;;;;9.50;6.10;;;;;;;;;;4954659;29;20435;-66
2023/01/10 12:58:25;;;;;;;5.30;3.13;;;;;;;;;;4953705;28;20423;-66
2023/01/10 13:00:53;;;;;;;5.37;2.77;;;;;;;;;;4954180;29;20442;-66
2023/01/10 13:03:20;;;;;;;4.47;2.80;;;;;;;;;;4953692;29;20419;-66
2023/01/10 13:05:48;;;;;;;3.03;2.03;;;;;;;;;;4952786;29;20494;-66
2023/01/10 13:08:15;;;;;;;8.70;4.70;;;;;;;;;;4953198;28;20950;-66
2023/01/10 13:10:42;;;;;;;3.20;2.90;;;;;;;;;;4953947;28;20510;-66
2023/01/10 13:13:20;;;;;;;4.60;2.50;;;;;;;;;;4954528;29;20481;-65
2023/01/10 13:15:52;;;;;;;9.40;2.00;;;;;;;;;;4936934;29;20442;-66
2023/01/10 13:18:24;;;;;;;9.57;3.80;;;;;;;;;;4953405;28;20445;-66
2023/01/10 13:21:02;;;;;;;3.43;1.90;;;;;;;;;;4937556;28;20447;-65
2023/01/10 13:23:29;;;;;;;17.10;4.93;;;;;;;;;;4954118;29;20510;-66
2023/01/10 13:25:57;;;;;;;3.23;1.97;;;;;;;;;;4954736;28;20482;-66
2023/01/10 13:28:25;;;;;;;4.93;1.33;;;;;;;;;;4952307;29;20514;-65
2023/01/10 13:30:57;;;;;;;1.97;1.87;;;;;;;;;;4953486;28;20533;-66
2023/01/10 13:33:25;;;;;;;5.90;3.20;;;;;;;;;;4953568;29;20466;-65
2023/01/10 13:35:52;;;;;;;5.83;1.90;;;;;;;;;;4954088;29;20459;-66
2023/01/10 13:38:25;;;;;;;4.87;2.30;;;;;;;;;;4935575;29;20449;-67
2023/01/10 13:44:00;;;;;;;6.27;2.73;;;;;;;;;;4954372;28;20458;-66
2023/01/10 13:46:26;;;;;;;7.67;2.40;;;;;;;;;;4952993;28;20522;-66
2023/01/10 13:48:59;;;;;;;5.37;3.13;;;;;;;;;;4952559;29;20674;-66
2023/01/10 13:51:26;;;;;;;4.20;1.87;;;;;;;;;;4953153;29;20506;-66
2023/01/10 13:53:58;;;;;;;4.23;1.57;;;;;;;;;;4953269;29;20473;-66
2023/01/10 13:56:27;;;;;;;1.43;1.33;;;;;;;;;;4953039;28;20449;-66
2023/01/10 14:04:24;;;;;;;4.47;1.90;;;;;;;;;;4951922;28;20489;-66
2023/01/10 14:06:55;;;;;;;4.60;1.73;;;;;;;;;;4952276;29;20467;-66
2023/01/10 14:09:21;;;;;;;4.83;1.63;;;;;;;;;;4951449;28;20427;-67
2023/01/10 14:11:50;;;;;;;1.33;1.20;;;;;;;;;;4953378;28;20447;-64
2023/01/10 14:14:36;;;;;;;3.20;1.37;;;;;;;;;;4935393;29;20486;-67
2023/01/10 14:17:20;;;;;;;1.97;1.27;;;;;;;;;;4951581;29;20451;-67
2023/01/10 14:19:48;;;;;;;1.83;1.50;;;;;;;;;;4936725;29;20541;-67
2023/01/10 14:22:40;;;;;;;2.97;1.97;;;;;;;;;;4953076;28;20981;-67
2023/01/10 14:25:18;;;;;;;2.43;1.03;;;;;;;;;;4950097;28;20483;-65
2023/01/10 14:27:49;;;;;;;2.50;0.70;;;;;;;;;;4951894;29;20438;-65
2023/01/10 14:30:20;;;;;;;6.33;1.37;;;;;;;;;;4952606;29;20437;-66
2023/01/10 14:32:49;;;;;;;3.07;1.70;;;;;;;;;;4952088;29;20434;-65
2023/01/10 14:35:17;;;;;;;2.17;1.30;;;;;;;;;;4952372;29;20439;-64
2023/01/10 14:37:46;;;;;;;4.73;0.90;;;;;;;;;;4951542;29;20442;-65
2023/01/10 14:40:18;;;;;;;5.50;1.20;;;;;;;;;;4936724;29;20492;-66
2023/01/10 14:42:46;;;;;;;8.80;1.90;;;;;;;;;;4952614;29;20411;-65
2023/01/10 14:45:20;;;;;;;5.47;1.03;;;;;;;;;;4953127;28;20521;-65
2023/01/10 14:47:47;;;;;;;6.77;1.37;;;;;;;;;;4950629;29;21146;-67
2023/01/10 14:50:28;;;;;;;2.00;1.50;;;;;;;;;;4952467;29;20441;-65
2023/01/10 14:52:55;;;;;;;7.70;1.93;;;;;;;;;;4952406;29;20975;-66
2023/01/10 14:55:21;;;;;;;2.43;1.10;;;;;;;;;;4951962;29;20486;-65
2023/01/10 14:57:58;;;;;;;2.90;2.63;;;;;;;;;;4951953;29;20441;-66
2023/01/10 15:00:25;;;;;;;7.83;2.90;;;;;;;;;;4951979;29;20430;-65
2023/01/10 15:02:51;;;;;;;3.20;2.53;;;;;;;;;;4951324;28;20478;-66
2023/01/10 15:05:25;;;;;;;2.53;1.30;;;;;;;;;;4951554;28;20502;-66
2023/01/10 15:07:51;;;;;;;1.17;0.93;;;;;;;;;;4934340;29;20972;-66
2023/01/10 15:10:20;;;;;;;3.23;0.90;;;;;;;;;;4952090;29;20430;-66
2023/01/10 15:12:46;;;;;;;3.53;1.10;;;;;;;;;;4934552;29;20466;-65
2023/01/10 15:15:17;;;;;;;0.97;0.97;;;;;;;;;;4951468;29;20454;-66
2023/01/10 15:17:44;;;;;;;4.00;0.83;;;;;;;;;;4950065;28;21140;-65
2023/01/10 15:20:14;;;;;;;9.03;1.57;;;;;;;;;;4934960;29;20951;-65